sensor_id;sensor_type;location;lat;lon;timestamp;temperature;humidity
36280;DHT22;22317;47.936;12.742;2022-10-30T00:03:02;9.60;61.70
36280;DHT22;22317;47.936;12.742;2022-10-30T00:05:28;9.50;61.70
36280;DHT22;22317;47.936;12.742;2022-10-30T00:07:54;9.50;61.70
36280;DHT22;22317;47.936;12.742;2022-10-30T00:10:21;9.50;61.70
36280;DHT22;22317;47.936;12.742;2022-10-30T00:12:47;9.50;61.60
36280;DHT22;22317;47.936;12.742;2022-10-30T00:15:12;9.50;61.50
36280;DHT22;22317;47.936;12.742;2022-10-30T00:20:05;9.40;61.50
36280;DHT22;22317;47.936;12.742;2022-10-30T00:22:31;9.40;61.60
36280;DHT22;22317;47.936;12.742;2022-10-30T00:24:57;9.40;61.60
36280;DHT22;22317;47.936;12.742;2022-10-30T00:27:23;9.40;61.70
36280;DHT22;22317;47.936;12.742;2022-10-30T00:29:49;9.40;61.60
36280;DHT22;22317;47.936;12.742;2022-10-30T00:32:14;9.30;61.50
36280;DHT22;22317;47.936;12.742;2022-10-30T00:34:42;9.30;61.60
36280;DHT22;22317;47.936;12.742;2022-10-30T00:37:08;9.30;61.60
36280;DHT22;22317;47.936;12.742;2022-10-30T00:39:33;9.20;61.50
36280;DHT22;22317;47.936;12.742;2022-10-30T00:41:59;9.20;61.50
36280;DHT22;22317;47.936;12.742;2022-10-30T00:44:47;9.20;61.60
36280;DHT22;22317;47.936;12.742;2022-10-30T00:47:27;9.20;61.60
36280;DHT22;22317;47.936;12.742;2022-10-30T00:50:04;9.20;61.60
36280;DHT22;22317;47.936;12.742;2022-10-30T00:52:37;9.10;61.50
36280;DHT22;22317;47.936;12.742;2022-10-30T00:55:11;9.10;61.50
36280;DHT22;22317;47.936;12.742;2022-10-30T00:57:39;9.00;61.50
36280;DHT22;22317;47.936;12.742;2022-10-30T01:00:07;9.00;61.50
36280;DHT22;22317;47.936;12.742;2022-10-30T01:02:34;9.00;61.70
36280;DHT22;22317;47.936;12.742;2022-10-30T01:05:01;8.90;61.60
36280;DHT22;22317;47.936;12.742;2022-10-30T01:12:20;8.80;61.70
36280;DHT22;22317;47.936;12.742;2022-10-30T01:14:52;8.70;61.70
36280;DHT22;22317;47.936;12.742;2022-10-30T01:17:26;8.80;61.90
36280;DHT22;22317;47.936;12.742;2022-10-30T01:30:59;8.80;62.30
36280;DHT22;22317;47.936;12.742;2022-10-30T01:36:21;8.70;62.20
36280;DHT22;22317;47.936;12.742;2022-10-30T01:38:56;8.70;62.20
36280;DHT22;22317;47.936;12.742;2022-10-30T01:41:23;8.70;62.20
36280;DHT22;22317;47.936;12.742;2022-10-30T01:43:53;8.70;62.20
36280;DHT22;22317;47.936;12.742;2022-10-30T01:53:03;8.70;62.50
36280;DHT22;22317;47.936;12.742;2022-10-30T01:58:19;8.70;62.40
36280;DHT22;22317;47.936;12.742;2022-10-30T02:00:55;8.60;62.30
36280;DHT22;22317;47.936;12.742;2022-10-30T02:05:50;8.60;62.20
36280;DHT22;22317;47.936;12.742;2022-10-30T02:08:18;8.60;62.20
36280;DHT22;22317;47.936;12.742;2022-10-30T02:10:45;8.50;62.20
36280;DHT22;22317;47.936;12.742;2022-10-30T02:13:12;8.50;62.20
36280;DHT22;22317;47.936;12.742;2022-10-30T02:15:40;8.50;62.20
36280;DHT22;22317;47.936;12.742;2022-10-30T02:18:06;8.40;62.10
36280;DHT22;22317;47.936;12.742;2022-10-30T02:20:32;8.40;62.20
36280;DHT22;22317;47.936;12.742;2022-10-30T02:25:24;8.30;62.30
36280;DHT22;22317;47.936;12.742;2022-10-30T02:27:52;8.30;62.40
36280;DHT22;22317;47.936;12.742;2022-10-30T02:32:43;8.40;62.50
36280;DHT22;22317;47.936;12.742;2022-10-30T02:35:09;8.30;62.50
36280;DHT22;22317;47.936;12.742;2022-10-30T02:37:35;8.40;62.60
36280;DHT22;22317;47.936;12.742;2022-10-30T02:40:02;8.40;62.60
36280;DHT22;22317;47.936;12.742;2022-10-30T02:42:29;8.40;62.50
36280;DHT22;22317;47.936;12.742;2022-10-30T02:44:54;8.40;62.50
36280;DHT22;22317;47.936;12.742;2022-10-30T02:47:20;8.40;62.40
36280;DHT22;22317;47.936;12.742;2022-10-30T02:52:12;8.30;62.30
36280;DHT22;22317;47.936;12.742;2022-10-30T02:57:08;8.30;62.20
36280;DHT22;22317;47.936;12.742;2022-10-30T03:02:00;8.30;62.10
36280;DHT22;22317;47.936;12.742;2022-10-30T03:04:26;8.20;62.10
36280;DHT22;22317;47.936;12.742;2022-10-30T03:09:18;8.20;62.20
36280;DHT22;22317;47.936;12.742;2022-10-30T03:14:11;8.10;62.20
36280;DHT22;22317;47.936;12.742;2022-10-30T03:16:37;8.10;62.30
36280;DHT22;22317;47.936;12.742;2022-10-30T03:19:05;8.10;62.30
36280;DHT22;22317;47.936;12.742;2022-10-30T03:21:32;8.10;62.40
36280;DHT22;22317;47.936;12.742;2022-10-30T03:23:58;8.00;62.50
36280;DHT22;22317;47.936;12.742;2022-10-30T03:36:22;8.10;62.90
36280;DHT22;22317;47.936;12.742;2022-10-30T03:38:49;8.10;62.90
36280;DHT22;22317;47.936;12.742;2022-10-30T03:41:17;8.10;62.90
36280;DHT22;22317;47.936;12.742;2022-10-30T03:46:09;8.10;62.50
36280;DHT22;22317;47.936;12.742;2022-10-30T03:55:57;8.00;62.60
36280;DHT22;22317;47.936;12.742;2022-10-30T03:58:26;8.00;62.50
36280;DHT22;22317;47.936;12.742;2022-10-30T04:01:04;7.90;62.50
36280;DHT22;22317;47.936;12.742;2022-10-30T04:05:59;7.90;62.50
36280;DHT22;22317;47.936;12.742;2022-10-30T04:08:25;7.90;62.60
36280;DHT22;22317;47.936;12.742;2022-10-30T04:10:50;7.90;62.70
36280;DHT22;22317;47.936;12.742;2022-10-30T04:13:17;7.90;62.70
36280;DHT22;22317;47.936;12.742;2022-10-30T04:20:41;7.90;62.80
36280;DHT22;22317;47.936;12.742;2022-10-30T04:23:12;7.90;62.70
36280;DHT22;22317;47.936;12.742;2022-10-30T04:30:31;7.90;62.80
36280;DHT22;22317;47.936;12.742;2022-10-30T04:33:05;7.90;62.90
36280;DHT22;22317;47.936;12.742;2022-10-30T04:35:33;7.90;62.80
36280;DHT22;22317;47.936;12.742;2022-10-30T04:38:03;7.90;62.90
36280;DHT22;22317;47.936;12.742;2022-10-30T04:40:34;7.90;62.80
36280;DHT22;22317;47.936;12.742;2022-10-30T04:43:04;7.80;62.70
36280;DHT22;22317;47.936;12.742;2022-10-30T04:48:10;7.70;62.70
36280;DHT22;22317;47.936;12.742;2022-10-30T04:50:36;7.70;62.80
36280;DHT22;22317;47.936;12.742;2022-10-30T04:53:06;7.70;62.90
36280;DHT22;22317;47.936;12.742;2022-10-30T04:55:32;7.60;63.00
36280;DHT22;22317;47.936;12.742;2022-10-30T04:57:59;7.60;63.00
36280;DHT22;22317;47.936;12.742;2022-10-30T05:00:29;7.70;63.40
36280;DHT22;22317;47.936;12.742;2022-10-30T05:03:00;7.70;64.00
36280;DHT22;22317;47.936;12.742;2022-10-30T05:05:30;7.70;64.10
36280;DHT22;22317;47.936;12.742;2022-10-30T05:07:56;7.70;64.10
36280;DHT22;22317;47.936;12.742;2022-10-30T05:10:22;7.60;63.30
36280;DHT22;22317;47.936;12.742;2022-10-30T05:12:51;7.60;63.30
36280;DHT22;22317;47.936;12.742;2022-10-30T05:15:17;7.60;64.00
36280;DHT22;22317;47.936;12.742;2022-10-30T05:17:43;7.60;63.90
36280;DHT22;22317;47.936;12.742;2022-10-30T05:20:09;7.60;63.30
36280;DHT22;22317;47.936;12.742;2022-10-30T05:22:35;7.60;63.80
36280;DHT22;22317;47.936;12.742;2022-10-30T05:25:01;7.60;63.80
36280;DHT22;22317;47.936;12.742;2022-10-30T05:27:27;7.50;63.70
36280;DHT22;22317;47.936;12.742;2022-10-30T05:29:54;7.70;63.40
36280;DHT22;22317;47.936;12.742;2022-10-30T05:32:19;7.50;63.70
36280;DHT22;22317;47.936;12.742;2022-10-30T05:34:47;7.50;63.60
36280;DHT22;22317;47.936;12.742;2022-10-30T05:37:17;7.50;63.70
36280;DHT22;22317;47.936;12.742;2022-10-30T05:39:43;7.50;63.70
36280;DHT22;22317;47.936;12.742;2022-10-30T05:42:21;7.50;63.10
36280;DHT22;22317;47.936;12.742;2022-10-30T05:44:47;7.40;63.50
36280;DHT22;22317;47.936;12.742;2022-10-30T05:47:12;7.40;63.60
36280;DHT22;22317;47.936;12.742;2022-10-30T05:49:42;7.40;63.80
36280;DHT22;22317;47.936;12.742;2022-10-30T05:52:13;7.40;63.40
36280;DHT22;22317;47.936;12.742;2022-10-30T05:54:39;7.40;64.10
36280;DHT22;22317;47.936;12.742;2022-10-30T05:57:10;7.40;64.10
36280;DHT22;22317;47.936;12.742;2022-10-30T05:59:38;7.40;64.10
36280;DHT22;22317;47.936;12.742;2022-10-30T06:02:03;7.30;63.50
36280;DHT22;22317;47.936;12.742;2022-10-30T06:04:30;7.40;64.30
36280;DHT22;22317;47.936;12.742;2022-10-30T06:06:56;7.40;64.30
36280;DHT22;22317;47.936;12.742;2022-10-30T06:09:21;7.40;64.30
36280;DHT22;22317;47.936;12.742;2022-10-30T06:11:53;7.40;63.70
36280;DHT22;22317;47.936;12.742;2022-10-30T06:14:24;7.50;64.30
36280;DHT22;22317;47.936;12.742;2022-10-30T06:16:50;7.40;64.10
36280;DHT22;22317;47.936;12.742;2022-10-30T06:19:16;7.40;64.10
36280;DHT22;22317;47.936;12.742;2022-10-30T06:21:42;7.50;63.60
36280;DHT22;22317;47.936;12.742;2022-10-30T06:24:23;7.50;64.10
36280;DHT22;22317;47.936;12.742;2022-10-30T06:27:08;7.50;64.10
36280;DHT22;22317;47.936;12.742;2022-10-30T06:29:34;7.50;64.00
36280;DHT22;22317;47.936;12.742;2022-10-30T06:32:00;7.50;63.50
36280;DHT22;22317;47.936;12.742;2022-10-30T06:34:25;7.60;64.10
36280;DHT22;22317;47.936;12.742;2022-10-30T06:36:52;7.60;63.40
36280;DHT22;22317;47.936;12.742;2022-10-30T06:39:17;7.60;64.10
36280;DHT22;22317;47.936;12.742;2022-10-30T06:42:02;7.70;63.80
36280;DHT22;22317;47.936;12.742;2022-10-30T06:44:43;7.80;64.30
36280;DHT22;22317;47.936;12.742;2022-10-30T06:47:09;7.90;64.20
36280;DHT22;22317;47.936;12.742;2022-10-30T06:49:34;8.00;64.20
36280;DHT22;22317;47.936;12.742;2022-10-30T06:52:00;8.00;63.60
36280;DHT22;22317;47.936;12.742;2022-10-30T06:54:26;8.10;64.20
36280;DHT22;22317;47.936;12.742;2022-10-30T06:57:04;8.20;64.10
36280;DHT22;22317;47.936;12.742;2022-10-30T06:59:58;8.50;63.80
36280;DHT22;22317;47.936;12.742;2022-10-30T07:03:00;8.40;64.00
36280;DHT22;22317;47.936;12.742;2022-10-30T07:05:27;8.50;63.90
36280;DHT22;22317;47.936;12.742;2022-10-30T07:07:55;8.60;63.90
36280;DHT22;22317;47.936;12.742;2022-10-30T07:10:22;8.80;63.30
36280;DHT22;22317;47.936;12.742;2022-10-30T07:13:17;8.80;63.90
36280;DHT22;22317;47.936;12.742;2022-10-30T07:15:53;9.00;63.80
36280;DHT22;22317;47.936;12.742;2022-10-30T07:18:22;9.10;63.60
36280;DHT22;22317;47.936;12.742;2022-10-30T07:20:54;9.00;62.80
36280;DHT22;22317;47.936;12.742;2022-10-30T07:23:21;9.40;63.60
36280;DHT22;22317;47.936;12.742;2022-10-30T07:25:48;9.50;63.60
36280;DHT22;22317;47.936;12.742;2022-10-30T07:28:22;9.70;63.60
36280;DHT22;22317;47.936;12.742;2022-10-30T07:31:08;9.80;63.60
36280;DHT22;22317;47.936;12.742;2022-10-30T07:34:06;10.00;63.50
36280;DHT22;22317;47.936;12.742;2022-10-30T07:36:45;10.30;63.40
36280;DHT22;22317;47.936;12.742;2022-10-30T07:39:29;10.50;63.30
36280;DHT22;22317;47.936;12.742;2022-10-30T07:42:16;10.60;63.00
36280;DHT22;22317;47.936;12.742;2022-10-30T07:45:02;10.90;62.90
36280;DHT22;22317;47.936;12.742;2022-10-30T07:47:48;11.00;62.90
36280;DHT22;22317;47.936;12.742;2022-10-30T07:50:23;11.30;63.00
36280;DHT22;22317;47.936;12.742;2022-10-30T07:52:49;11.50;62.70
36280;DHT22;22317;47.936;12.742;2022-10-30T07:55:18;11.60;62.50
36280;DHT22;22317;47.936;12.742;2022-10-30T07:57:48;11.90;62.30
36280;DHT22;22317;47.936;12.742;2022-10-30T08:00:32;12.10;62.10
36280;DHT22;22317;47.936;12.742;2022-10-30T08:03:08;12.20;62.00
36280;DHT22;22317;47.936;12.742;2022-10-30T08:05:43;12.50;61.90
36280;DHT22;22317;47.936;12.742;2022-10-30T08:08:41;12.60;61.60
36280;DHT22;22317;47.936;12.742;2022-10-30T08:11:26;12.80;61.30
36280;DHT22;22317;47.936;12.742;2022-10-30T08:13:53;13.00;61.20
36280;DHT22;22317;47.936;12.742;2022-10-30T08:16:19;13.20;60.90
36280;DHT22;22317;47.936;12.742;2022-10-30T08:18:44;13.40;60.90
36280;DHT22;22317;47.936;12.742;2022-10-30T08:21:10;13.50;60.80
36280;DHT22;22317;47.936;12.742;2022-10-30T08:23:44;13.70;60.50
36280;DHT22;22317;47.936;12.742;2022-10-30T08:26:13;13.80;60.80
36280;DHT22;22317;47.936;12.742;2022-10-30T08:28:39;14.00;59.80
36280;DHT22;22317;47.936;12.742;2022-10-30T08:31:11;14.10;59.60
36280;DHT22;22317;47.936;12.742;2022-10-30T08:33:55;14.30;59.20
36280;DHT22;22317;47.936;12.742;2022-10-30T08:36:59;14.50;59.00
36280;DHT22;22317;47.936;12.742;2022-10-30T08:39:25;14.60;58.60
36280;DHT22;22317;47.936;12.742;2022-10-30T08:42:16;14.80;58.40
36280;DHT22;22317;47.936;12.742;2022-10-30T08:44:43;14.90;58.10
36280;DHT22;22317;47.936;12.742;2022-10-30T08:47:27;15.10;57.60
36280;DHT22;22317;47.936;12.742;2022-10-30T08:49:53;15.60;56.50
36280;DHT22;22317;47.936;12.742;2022-10-30T08:52:22;15.20;56.60
36280;DHT22;22317;47.936;12.742;2022-10-30T08:54:53;15.30;56.20
36280;DHT22;22317;47.936;12.742;2022-10-30T08:57:21;15.30;56.00
36280;DHT22;22317;47.936;12.742;2022-10-30T08:59:47;15.50;56.00
36280;DHT22;22317;47.936;12.742;2022-10-30T09:02:34;15.60;55.70
36280;DHT22;22317;47.936;12.742;2022-10-30T09:05:39;15.80;55.50
36280;DHT22;22317;47.936;12.742;2022-10-30T09:08:29;15.90;55.40
36280;DHT22;22317;47.936;12.742;2022-10-30T09:11:05;16.00;54.90
36280;DHT22;22317;47.936;12.742;2022-10-30T09:13:31;16.10;54.60
36280;DHT22;22317;47.936;12.742;2022-10-30T09:16:02;16.20;54.30
36280;DHT22;22317;47.936;12.742;2022-10-30T09:18:31;16.30;54.00
36280;DHT22;22317;47.936;12.742;2022-10-30T09:20:57;16.40;53.90
36280;DHT22;22317;47.936;12.742;2022-10-30T09:23:23;16.40;53.50
36280;DHT22;22317;47.936;12.742;2022-10-30T09:25:58;16.50;53.40
36280;DHT22;22317;47.936;12.742;2022-10-30T09:28:45;16.60;53.30
36280;DHT22;22317;47.936;12.742;2022-10-30T09:31:34;16.70;53.20
36280;DHT22;22317;47.936;12.742;2022-10-30T09:34:02;16.90;52.90
36280;DHT22;22317;47.936;12.742;2022-10-30T09:36:48;17.00;52.70
36280;DHT22;22317;47.936;12.742;2022-10-30T09:39:14;17.10;52.40
36280;DHT22;22317;47.936;12.742;2022-10-30T09:47:53;17.60;51.80
36280;DHT22;22317;47.936;12.742;2022-10-30T09:50:38;17.80;51.60
36280;DHT22;22317;47.936;12.742;2022-10-30T09:56:02;18.10;50.80
36280;DHT22;22317;47.936;12.742;2022-10-30T10:04:29;18.60;49.50
36280;DHT22;22317;47.936;12.742;2022-10-30T10:07:20;18.80;49.20
36280;DHT22;22317;47.936;12.742;2022-10-30T10:10:38;19.00;49.00
36280;DHT22;22317;47.936;12.742;2022-10-30T10:13:35;19.20;48.80
36280;DHT22;22317;47.936;12.742;2022-10-30T10:16:16;19.50;48.50
36280;DHT22;22317;47.936;12.742;2022-10-30T10:18:47;19.70;48.30
36280;DHT22;22317;47.936;12.742;2022-10-30T10:21:20;19.90;47.90
36280;DHT22;22317;47.936;12.742;2022-10-30T10:23:49;20.10;47.60
36280;DHT22;22317;47.936;12.742;2022-10-30T10:28:57;20.60;46.70
36280;DHT22;22317;47.936;12.742;2022-10-30T10:42:01;21.70;43.70
36280;DHT22;22317;47.936;12.742;2022-10-30T10:44:53;21.80;43.10
36280;DHT22;22317;47.936;12.742;2022-10-30T10:47:31;21.90;42.30
36280;DHT22;22317;47.936;12.742;2022-10-30T10:52:50;22.40;42.60
36280;DHT22;22317;47.936;12.742;2022-10-30T10:55:27;22.70;42.30
36280;DHT22;22317;47.936;12.742;2022-10-30T10:58:01;22.90;41.50
36280;DHT22;22317;47.936;12.742;2022-10-30T11:00:30;23.10;41.60
36280;DHT22;22317;47.936;12.742;2022-10-30T11:05:40;23.60;40.00
36280;DHT22;22317;47.936;12.742;2022-10-30T11:10:57;24.00;39.00
36280;DHT22;22317;47.936;12.742;2022-10-30T11:13:29;24.20;38.90
36280;DHT22;22317;47.936;12.742;2022-10-30T11:23:48;25.30;37.40
36280;DHT22;22317;47.936;12.742;2022-10-30T11:32:02;25.70;37.00
36280;DHT22;22317;47.936;12.742;2022-10-30T11:34:34;26.00;36.50
36280;DHT22;22317;47.936;12.742;2022-10-30T11:37:00;26.10;36.30
36280;DHT22;22317;47.936;12.742;2022-10-30T11:39:28;26.30;36.20
36280;DHT22;22317;47.936;12.742;2022-10-30T11:42:13;26.60;36.10
36280;DHT22;22317;47.936;12.742;2022-10-30T11:47:08;27.40;35.70
36280;DHT22;22317;47.936;12.742;2022-10-30T11:49:48;28.00;35.00
36280;DHT22;22317;47.936;12.742;2022-10-30T11:52:18;28.60;33.80
36280;DHT22;22317;47.936;12.742;2022-10-30T11:54:52;29.40;33.50
36280;DHT22;22317;47.936;12.742;2022-10-30T11:57:36;30.10;32.40
36280;DHT22;22317;47.936;12.742;2022-10-30T12:00:21;30.40;31.00
36280;DHT22;22317;47.936;12.742;2022-10-30T12:02:52;30.40;29.90
36280;DHT22;22317;47.936;12.742;2022-10-30T12:07:50;29.80;29.70
36280;DHT22;22317;47.936;12.742;2022-10-30T12:10:28;29.40;29.80
36280;DHT22;22317;47.936;12.742;2022-10-30T12:12:54;29.30;29.80
36280;DHT22;22317;47.936;12.742;2022-10-30T12:15:25;29.20;30.40
36280;DHT22;22317;47.936;12.742;2022-10-30T12:17:53;29.10;30.30
36280;DHT22;22317;47.936;12.742;2022-10-30T12:20:19;29.20;30.40
36280;DHT22;22317;47.936;12.742;2022-10-30T12:22:46;29.30;30.50
36280;DHT22;22317;47.936;12.742;2022-10-30T12:27:56;29.70;30.00
36280;DHT22;22317;47.936;12.742;2022-10-30T12:30:25;29.90;30.00
36280;DHT22;22317;47.936;12.742;2022-10-30T12:32:56;29.90;29.60
36280;DHT22;22317;47.936;12.742;2022-10-30T12:35:38;30.00;29.40
36280;DHT22;22317;47.936;12.742;2022-10-30T12:38:16;30.00;29.30
36280;DHT22;22317;47.936;12.742;2022-10-30T12:40:57;30.30;28.80
36280;DHT22;22317;47.936;12.742;2022-10-30T12:43:28;30.40;28.60
36280;DHT22;22317;47.936;12.742;2022-10-30T12:49:28;30.40;28.50
36280;DHT22;22317;47.936;12.742;2022-10-30T12:52:00;30.30;28.40
36280;DHT22;22317;47.936;12.742;2022-10-30T12:57:15;29.80;28.30
36280;DHT22;22317;47.936;12.742;2022-10-30T13:05:37;30.00;28.70
36280;DHT22;22317;47.936;12.742;2022-10-30T13:11:35;30.10;28.10
36280;DHT22;22317;47.936;12.742;2022-10-30T13:13:57;30.10;27.70
36280;DHT22;22317;47.936;12.742;2022-10-30T13:16:28;30.00;28.00
36280;DHT22;22317;47.936;12.742;2022-10-30T13:18:58;29.90;27.70
36280;DHT22;22317;47.936;12.742;2022-10-30T13:21:38;29.80;27.70
36280;DHT22;22317;47.936;12.742;2022-10-30T13:27:02;29.00;27.60
36280;DHT22;22317;47.936;12.742;2022-10-30T13:30:07;28.60;27.80
36280;DHT22;22317;47.936;12.742;2022-10-30T13:43:51;29.20;27.70
36280;DHT22;22317;47.936;12.742;2022-10-30T13:54:37;27.60;28.70
36280;DHT22;22317;47.936;12.742;2022-10-30T14:00:32;27.20;29.10
36280;DHT22;22317;47.936;12.742;2022-10-30T14:11:29;25.90;30.00
36280;DHT22;22317;47.936;12.742;2022-10-30T14:14:23;25.90;30.60
36280;DHT22;22317;47.936;12.742;2022-10-30T14:16:43;25.60;31.10
36280;DHT22;22317;47.936;12.742;2022-10-30T14:19:11;25.30;31.70
36280;DHT22;22317;47.936;12.742;2022-10-30T14:29:35;24.30;32.80
36280;DHT22;22317;47.936;12.742;2022-10-30T14:43:02;23.20;34.70
36280;DHT22;22317;47.936;12.742;2022-10-30T14:45:52;23.00;34.80
36280;DHT22;22317;47.936;12.742;2022-10-30T14:48:47;22.90;35.80
36280;DHT22;22317;47.936;12.742;2022-10-30T14:51:21;22.60;35.00
36280;DHT22;22317;47.936;12.742;2022-10-30T14:54:00;22.40;35.60
36280;DHT22;22317;47.936;12.742;2022-10-30T15:15:02;22.90;36.70
36280;DHT22;22317;47.936;12.742;2022-10-30T15:17:35;22.80;36.60
36280;DHT22;22317;47.936;12.742;2022-10-30T15:20:12;22.80;36.50
36280;DHT22;22317;47.936;12.742;2022-10-30T15:22:41;22.80;37.10
36280;DHT22;22317;47.936;12.742;2022-10-30T15:25:20;22.70;36.80
36280;DHT22;22317;47.936;12.742;2022-10-30T15:27:51;22.40;37.00
36280;DHT22;22317;47.936;12.742;2022-10-30T15:30:23;22.20;36.90
36280;DHT22;22317;47.936;12.742;2022-10-30T15:32:49;21.90;37.20
36280;DHT22;22317;47.936;12.742;2022-10-30T15:35:19;21.50;37.50
36280;DHT22;22317;47.936;12.742;2022-10-30T15:38:01;21.20;37.80
36280;DHT22;22317;47.936;12.742;2022-10-30T15:40:28;20.70;37.80
36280;DHT22;22317;47.936;12.742;2022-10-30T15:42:55;20.60;38.70
36280;DHT22;22317;47.936;12.742;2022-10-30T15:45:37;20.40;39.20
36280;DHT22;22317;47.936;12.742;2022-10-30T15:50:57;19.90;40.30
36280;DHT22;22317;47.936;12.742;2022-10-30T15:53:39;19.60;40.40
36280;DHT22;22317;47.936;12.742;2022-10-30T15:56:47;19.10;40.30
36280;DHT22;22317;47.936;12.742;2022-10-30T15:59:21;19.00;41.30
36280;DHT22;22317;47.936;12.742;2022-10-30T16:01:49;18.70;41.10
36280;DHT22;22317;47.936;12.742;2022-10-30T16:04:30;18.50;41.60
36280;DHT22;22317;47.936;12.742;2022-10-30T16:07:01;18.20;42.30
36280;DHT22;22317;47.936;12.742;2022-10-30T16:09:29;18.00;42.70
36280;DHT22;22317;47.936;12.742;2022-10-30T16:11:57;17.70;43.00
36280;DHT22;22317;47.936;12.742;2022-10-30T16:14:26;17.50;43.60
36280;DHT22;22317;47.936;12.742;2022-10-30T16:16:53;17.40;43.90
36280;DHT22;22317;47.936;12.742;2022-10-30T16:19:27;17.10;43.80
36280;DHT22;22317;47.936;12.742;2022-10-30T16:21:54;16.90;44.70
36280;DHT22;22317;47.936;12.742;2022-10-30T16:24:34;16.70;45.20
36280;DHT22;22317;47.936;12.742;2022-10-30T16:27:14;16.60;45.90
36280;DHT22;22317;47.936;12.742;2022-10-30T16:29:40;16.50;46.00
36280;DHT22;22317;47.936;12.742;2022-10-30T16:32:13;16.30;45.90
36280;DHT22;22317;47.936;12.742;2022-10-30T16:34:41;16.10;46.00
36280;DHT22;22317;47.936;12.742;2022-10-30T16:37:34;15.90;46.20
36280;DHT22;22317;47.936;12.742;2022-10-30T16:40:22;15.80;46.40
36280;DHT22;22317;47.936;12.742;2022-10-30T16:42:54;15.60;46.50
36280;DHT22;22317;47.936;12.742;2022-10-30T16:48:00;15.40;47.50
36280;DHT22;22317;47.936;12.742;2022-10-30T16:50:34;15.20;47.30
36280;DHT22;22317;47.936;12.742;2022-10-30T16:53:16;15.20;48.20
36280;DHT22;22317;47.936;12.742;2022-10-30T16:55:43;15.10;48.40
36280;DHT22;22317;47.936;12.742;2022-10-30T16:58:13;14.90;48.50
36280;DHT22;22317;47.936;12.742;2022-10-30T17:00:47;14.90;48.60
36280;DHT22;22317;47.936;12.742;2022-10-30T17:03:13;14.80;49.10
36280;DHT22;22317;47.936;12.742;2022-10-30T17:05:40;14.70;49.30
36280;DHT22;22317;47.936;12.742;2022-10-30T17:11:01;14.60;49.40
36280;DHT22;22317;47.936;12.742;2022-10-30T17:13:34;14.60;50.20
36280;DHT22;22317;47.936;12.742;2022-10-30T17:18:52;14.40;50.50
36280;DHT22;22317;47.936;12.742;2022-10-30T17:21:25;14.30;50.20
36280;DHT22;22317;47.936;12.742;2022-10-30T17:23:56;14.30;50.80
36280;DHT22;22317;47.936;12.742;2022-10-30T17:26:25;14.10;50.60
36280;DHT22;22317;47.936;12.742;2022-10-30T17:28:52;14.00;50.90
36280;DHT22;22317;47.936;12.742;2022-10-30T17:34:11;13.80;51.50
36280;DHT22;22317;47.936;12.742;2022-10-30T17:36:37;13.70;52.70
36280;DHT22;22317;47.936;12.742;2022-10-30T17:39:03;13.70;51.90
36280;DHT22;22317;47.936;12.742;2022-10-30T17:41:29;13.60;52.10
36280;DHT22;22317;47.936;12.742;2022-10-30T17:43:55;13.50;52.10
36280;DHT22;22317;47.936;12.742;2022-10-30T17:46:24;13.40;52.20
36280;DHT22;22317;47.936;12.742;2022-10-30T17:48:50;13.30;52.50
36280;DHT22;22317;47.936;12.742;2022-10-30T17:51:17;13.20;52.50
36280;DHT22;22317;47.936;12.742;2022-10-30T17:53:43;13.20;52.90
36280;DHT22;22317;47.936;12.742;2022-10-30T17:56:26;13.10;53.00
36280;DHT22;22317;47.936;12.742;2022-10-30T17:58:53;13.00;53.30
36280;DHT22;22317;47.936;12.742;2022-10-30T18:01:22;12.90;53.30
36280;DHT22;22317;47.936;12.742;2022-10-30T18:03:49;12.90;53.70
36280;DHT22;22317;47.936;12.742;2022-10-30T18:06:18;12.80;53.40
36280;DHT22;22317;47.936;12.742;2022-10-30T18:08:45;12.80;54.00
36280;DHT22;22317;47.936;12.742;2022-10-30T18:11:12;12.70;53.80
36280;DHT22;22317;47.936;12.742;2022-10-30T18:13:39;12.70;54.30
36280;DHT22;22317;47.936;12.742;2022-10-30T18:16:05;12.60;54.40
36280;DHT22;22317;47.936;12.742;2022-10-30T18:18:33;12.60;54.60
36280;DHT22;22317;47.936;12.742;2022-10-30T18:20:59;12.50;54.20
36280;DHT22;22317;47.936;12.742;2022-10-30T18:23:24;12.50;54.70
36280;DHT22;22317;47.936;12.742;2022-10-30T18:25:51;12.40;54.70
36280;DHT22;22317;47.936;12.742;2022-10-30T18:28:17;12.30;54.80
36280;DHT22;22317;47.936;12.742;2022-10-30T18:30:48;12.20;54.80
36280;DHT22;22317;47.936;12.742;2022-10-30T18:33:14;12.20;55.40
36280;DHT22;22317;47.936;12.742;2022-10-30T18:35:40;12.10;55.40
36280;DHT22;22317;47.936;12.742;2022-10-30T18:38:06;12.10;55.50
36280;DHT22;22317;47.936;12.742;2022-10-30T18:40:33;12.00;55.20
36280;DHT22;22317;47.936;12.742;2022-10-30T18:42:59;12.00;55.80
36280;DHT22;22317;47.936;12.742;2022-10-30T18:45:35;11.90;55.80
36280;DHT22;22317;47.936;12.742;2022-10-30T18:48:09;11.90;56.20
36280;DHT22;22317;47.936;12.742;2022-10-30T18:50:36;11.90;55.70
36280;DHT22;22317;47.936;12.742;2022-10-30T18:53:03;11.80;56.20
36280;DHT22;22317;47.936;12.742;2022-10-30T18:57:58;11.80;56.60
36280;DHT22;22317;47.936;12.742;2022-10-30T19:00:24;11.80;56.30
36280;DHT22;22317;47.936;12.742;2022-10-30T19:02:54;11.70;56.70
36280;DHT22;22317;47.936;12.742;2022-10-30T19:07:48;11.70;56.80
36280;DHT22;22317;47.936;12.742;2022-10-30T19:10:14;11.60;56.40
36280;DHT22;22317;47.936;12.742;2022-10-30T19:12:40;11.70;57.00
36280;DHT22;22317;47.936;12.742;2022-10-30T19:15:23;11.70;57.10
36280;DHT22;22317;47.936;12.742;2022-10-30T19:17:51;11.60;57.40
36280;DHT22;22317;47.936;12.742;2022-10-30T19:20:17;11.60;56.80
36280;DHT22;22317;47.936;12.742;2022-10-30T19:22:43;9.50;56.30
36280;DHT22;22317;47.936;12.742;2022-10-30T19:25:31;11.60;56.80
36280;DHT22;22317;47.936;12.742;2022-10-30T19:27:57;11.60;57.30
36280;DHT22;22317;47.936;12.742;2022-10-30T19:30:22;11.50;56.80
36280;DHT22;22317;47.936;12.742;2022-10-30T19:32:48;11.50;57.30
36280;DHT22;22317;47.936;12.742;2022-10-30T19:35:16;11.50;57.40
36280;DHT22;22317;47.936;12.742;2022-10-30T19:37:42;11.40;57.50
36280;DHT22;22317;47.936;12.742;2022-10-30T19:42:43;11.40;57.80
36280;DHT22;22317;47.936;12.742;2022-10-30T19:45:10;11.40;57.70
36280;DHT22;22317;47.936;12.742;2022-10-30T19:47:36;11.30;57.80
36280;DHT22;22317;47.936;12.742;2022-10-30T19:50:46;11.30;57.40
36280;DHT22;22317;47.936;12.742;2022-10-30T19:53:06;11.30;58.10
36280;DHT22;22317;47.936;12.742;2022-10-30T19:55:35;11.30;58.00
36280;DHT22;22317;47.936;12.742;2022-10-30T19:58:02;11.30;58.10
36280;DHT22;22317;47.936;12.742;2022-10-30T20:00:36;11.30;58.10
36280;DHT22;22317;47.936;12.742;2022-10-30T20:03:04;11.30;58.20